createdAt,value
2022-09-15T00:03:52.185Z,14.24
2022-09-15T00:08:55.828Z,14.20
2022-09-15T00:14:01.949Z,14.24
2022-09-15T00:19:06.808Z,14.27
2022-09-15T00:24:10.631Z,14.22
2022-09-15T00:29:13.710Z,14.17
2022-09-15T00:34:16.820Z,14.12
2022-09-15T00:39:20.737Z,14.06
2022-09-15T00:44:23.641Z,14.05
2022-09-15T00:49:37.991Z,14.14
2022-09-15T00:54:52.748Z,14.15
2022-09-15T00:59:59.211Z,14.08
2022-09-15T01:05:08.025Z,13.99
2022-09-15T01:10:28.228Z,13.95
2022-09-15T01:22:15.049Z,13.99
2022-09-15T01:28:01.955Z,14.05
2022-09-15T01:33:37.668Z,14.03
2022-09-15T01:38:49.611Z,13.89
2022-09-15T01:44:02.611Z,13.82
2022-09-15T01:49:11.371Z,13.76
2022-09-15T01:54:19.529Z,13.75
2022-09-15T01:59:23.258Z,13.77
2022-09-15T02:04:29.894Z,13.83
2022-09-15T02:09:54.945Z,13.86
2022-09-15T02:15:08.895Z,13.79
2022-09-15T02:20:33.316Z,13.76
2022-09-15T02:25:47.392Z,13.69
2022-09-15T02:30:53.778Z,13.68
2022-09-15T02:35:57.071Z,13.72
2022-09-15T02:41:01.394Z,13.74
2022-09-15T02:46:04.535Z,13.74
2022-09-15T02:51:07.807Z,13.73
2022-09-15T02:56:10.917Z,13.72
2022-09-15T03:01:15.968Z,13.68
2022-09-15T03:06:21.329Z,13.69
2022-09-15T03:11:27.398Z,13.71
2022-09-15T03:16:34.590Z,13.72
2022-09-15T03:21:38.019Z,13.72
2022-09-15T03:26:41.543Z,13.69
2022-09-15T03:31:44.705Z,13.64
2022-09-15T03:36:47.863Z,13.62
2022-09-15T03:41:51.157Z,13.59
2022-09-15T03:46:54.266Z,13.60
2022-09-15T03:51:59.231Z,13.65
2022-09-15T03:57:03.660Z,13.63
2022-09-15T04:02:06.703Z,13.59
2022-09-15T04:07:10.065Z,13.53
2022-09-15T04:12:13.380Z,13.41
2022-09-15T04:17:16.486Z,13.26
2022-09-15T04:22:20.539Z,13.15
2022-09-15T04:27:24.026Z,13.13
2022-09-15T04:32:30.019Z,13.04
2022-09-15T04:37:33.719Z,12.96
2022-09-15T04:42:37.263Z,12.88
2022-09-15T04:47:40.446Z,12.82
2022-09-15T04:52:43.548Z,12.82
2022-09-15T04:57:46.865Z,12.91
2022-09-15T05:02:50.488Z,13.07
2022-09-15T05:07:53.890Z,13.18
2022-09-15T05:12:56.945Z,13.28
2022-09-15T05:18:00.617Z,13.30
2022-09-15T05:23:03.744Z,13.33
2022-09-15T05:28:07.961Z,13.42
2022-09-15T05:33:11.298Z,13.50
2022-09-15T05:38:14.375Z,13.57
2022-09-15T05:43:18.727Z,13.57
2022-09-15T05:48:22.429Z,13.46
2022-09-15T05:53:26.842Z,13.34
2022-09-15T05:58:31.086Z,13.39
2022-09-15T06:03:35.735Z,13.51
2022-09-15T06:08:44.457Z,13.65
2022-09-15T06:13:49.324Z,13.82
2022-09-15T06:18:54.299Z,13.99
2022-09-15T06:24:01.646Z,14.16
2022-09-15T06:29:06.269Z,14.38
2022-09-15T06:34:30.631Z,14.59
2022-09-15T06:39:33.834Z,14.74
2022-09-15T06:44:37.066Z,15.05
2022-09-15T06:49:40.158Z,15.36
2022-09-15T06:54:43.253Z,15.40
2022-09-15T06:59:46.463Z,15.44
2022-09-15T07:04:49.875Z,15.34
2022-09-15T07:09:52.984Z,15.29
2022-09-15T07:14:56.193Z,15.39
2022-09-15T07:20:00.731Z,15.52
2022-09-15T07:25:04.687Z,15.73
2022-09-15T07:30:08.897Z,15.94
2022-09-15T07:35:12.831Z,16.01
2022-09-15T07:40:16.178Z,16.05
2022-09-15T07:45:19.401Z,16.15
2022-09-15T07:50:22.813Z,16.30
2022-09-15T07:55:26.063Z,16.48
2022-09-15T08:00:30.358Z,16.65
2022-09-15T08:05:37.769Z,16.81
2022-09-15T08:10:42.963Z,16.94
2022-09-15T08:15:47.380Z,17.07
2022-09-15T08:20:50.600Z,17.32
2022-09-15T08:25:54.011Z,17.81
2022-09-15T08:31:09.522Z,18.16
2022-09-15T08:36:13.742Z,18.05
2022-09-15T08:41:33.668Z,18.21
2022-09-15T08:47:19.478Z,18.43
2022-09-15T08:52:54.420Z,18.45
2022-09-15T08:57:57.610Z,18.36
2022-09-15T09:03:36.248Z,18.42
2022-09-15T09:09:12.018Z,18.79
2022-09-15T09:14:36.946Z,18.98
2022-09-15T09:20:18.644Z,19.15
2022-09-15T09:25:27.954Z,19.12
2022-09-15T09:30:36.525Z,19.09
2022-09-15T09:35:45.812Z,19.37
2022-09-15T09:40:51.246Z,19.26
2022-09-15T09:45:54.523Z,18.90
2022-09-15T09:50:57.870Z,18.57
2022-09-15T09:56:25.945Z,18.47
2022-09-15T10:01:29.673Z,18.47
2022-09-15T10:06:34.337Z,18.49
2022-09-15T10:11:57.694Z,18.54
2022-09-15T10:17:36.552Z,18.51
2022-09-15T10:22:42.388Z,18.79
2022-09-15T10:28:01.496Z,18.83
2022-09-15T10:33:37.118Z,18.58
2022-09-15T10:38:54.933Z,18.44
2022-09-15T10:44:26.078Z,18.47
2022-09-15T10:49:52.345Z,18.34
2022-09-15T10:55:51.651Z,18.38
2022-09-15T11:01:28.682Z,18.59
2022-09-15T11:06:40.682Z,18.92
2022-09-15T11:12:07.636Z,19.18
2022-09-15T11:17:53.541Z,19.29
2022-09-15T11:23:22.968Z,19.35
2022-09-15T11:28:58.428Z,19.44
2022-09-15T11:34:17.862Z,19.67
2022-09-15T11:39:31.579Z,19.62
2022-09-15T11:44:43.075Z,19.32
2022-09-15T11:49:57.313Z,19.19
2022-09-15T11:55:38.643Z,19.19
2022-09-15T12:01:10.552Z,19.35
2022-09-15T12:06:23.773Z,19.43
2022-09-15T12:11:32.406Z,19.57
2022-09-15T12:16:36.430Z,19.62
2022-09-15T12:22:01.008Z,19.74
2022-09-15T12:27:05.172Z,19.94
2022-09-15T12:32:33.383Z,20.02
2022-09-15T12:37:40.263Z,19.91
2022-09-15T12:42:46.453Z,20.16
2022-09-15T12:48:29.482Z,20.64
2022-09-15T12:53:50.375Z,20.81
2022-09-15T12:58:56.069Z,20.91
2022-09-15T13:03:59.096Z,20.81
2022-09-15T13:09:02.626Z,20.81
2022-09-15T13:14:08.897Z,20.79
2022-09-15T13:19:29.887Z,20.67
2022-09-15T13:24:59.022Z,21.07
2022-09-15T13:30:39.627Z,21.47
2022-09-15T13:35:52.136Z,21.23
2022-09-15T13:41:31.178Z,20.55
2022-09-15T13:46:50.354Z,20.68
2022-09-15T13:52:13.027Z,20.73
2022-09-15T13:57:16.372Z,20.91
2022-09-15T14:02:21.246Z,20.87
2022-09-15T14:07:26.035Z,20.56
2022-09-15T14:12:29.446Z,20.26
2022-09-15T14:17:34.377Z,19.78
2022-09-15T14:22:41.291Z,18.59
2022-09-15T14:27:53.837Z,18.26
2022-09-15T14:33:01.053Z,18.02
2022-09-15T14:38:04.958Z,17.67
2022-09-15T14:43:36.196Z,17.40
2022-09-15T14:48:40.355Z,17.31
2022-09-15T14:53:45.185Z,17.26
2022-09-15T14:58:56.243Z,17.13
2022-09-15T15:04:24.778Z,17.20
2022-09-15T15:09:56.872Z,16.99
2022-09-15T15:15:01.427Z,16.84
2022-09-15T15:20:10.696Z,16.69
2022-09-15T15:25:36.793Z,16.55
2022-09-15T15:30:42.477Z,16.43
2022-09-15T15:35:46.393Z,16.52
2022-09-15T15:41:00.555Z,16.57
2022-09-15T15:46:07.794Z,16.54
2022-09-15T15:51:11.075Z,16.53
2022-09-15T15:56:14.741Z,16.50
2022-09-15T16:01:18.060Z,16.41
2022-09-15T16:06:22.335Z,16.41
2022-09-15T16:11:25.477Z,16.38
2022-09-15T16:16:29.637Z,16.23
2022-09-15T16:21:39.811Z,16.14
2022-09-15T16:26:44.177Z,16.15
2022-09-15T16:31:48.930Z,16.04
2022-09-15T16:36:52.135Z,15.99
2022-09-15T16:41:55.276Z,15.98
2022-09-15T16:46:58.714Z,15.96
2022-09-15T16:52:02.120Z,15.87
2022-09-15T16:57:05.175Z,15.76
2022-09-15T17:02:14.357Z,15.59
2022-09-15T17:07:17.917Z,15.50
2022-09-15T17:12:22.490Z,15.45
2022-09-15T17:17:26.335Z,15.47
2022-09-15T17:22:29.625Z,15.47
2022-09-15T17:27:32.773Z,15.37
2022-09-15T17:32:36.160Z,15.24
2022-09-15T17:37:39.339Z,15.07
2022-09-15T17:42:43.681Z,14.94
2022-09-15T17:47:48.619Z,14.83
2022-09-15T17:52:52.233Z,14.70
2022-09-15T17:57:57.810Z,14.59
2022-09-15T18:03:11.101Z,14.48
2022-09-15T18:08:16.748Z,14.37
2022-09-15T18:13:24.416Z,14.28
2022-09-15T18:18:28.651Z,14.20
2022-09-15T18:23:31.863Z,14.10
2022-09-15T18:28:34.969Z,14.01
2022-09-15T18:33:38.090Z,13.93
2022-09-15T18:38:42.111Z,13.83
2022-09-15T18:43:49.254Z,13.78
2022-09-15T18:48:53.023Z,13.70
2022-09-15T18:53:57.593Z,13.55
2022-09-15T18:59:02.010Z,13.45
2022-09-15T19:04:05.106Z,13.32
2022-09-15T19:09:08.212Z,13.18
2022-09-15T19:14:11.354Z,13.05
2022-09-15T19:19:15.013Z,12.96
2022-09-15T19:24:18.456Z,12.92
2022-09-15T19:29:21.557Z,12.90
2022-09-15T19:34:24.670Z,12.85
2022-09-15T19:39:27.979Z,12.76
2022-09-15T19:44:31.099Z,12.68
2022-09-15T19:49:34.404Z,12.59
2022-09-15T19:54:37.604Z,12.49
2022-09-15T19:59:40.820Z,12.46
2022-09-15T20:10:05.402Z,12.26
2022-09-15T20:15:09.161Z,12.18
2022-09-15T20:20:12.302Z,12.05
2022-09-15T20:25:15.648Z,11.99
2022-09-15T20:30:21.999Z,11.96
2022-09-15T20:35:24.978Z,11.95
2022-09-15T20:40:28.064Z,11.87
2022-09-15T20:45:36.483Z,11.77
2022-09-15T20:50:40.358Z,11.69
2022-09-15T20:55:50.603Z,11.61
2022-09-15T21:01:27.805Z,11.63
2022-09-15T21:06:31.842Z,11.61
2022-09-15T21:11:35.977Z,11.62
2022-09-15T21:16:39.394Z,11.58
2022-09-15T21:21:42.518Z,11.54
2022-09-15T21:27:04.074Z,11.52
2022-09-15T21:32:07.204Z,11.44
2022-09-15T21:37:11.171Z,11.44
2022-09-15T21:42:14.274Z,11.47
2022-09-15T21:47:17.381Z,11.50
2022-09-15T21:52:20.486Z,11.48
2022-09-15T21:57:24.219Z,11.39
2022-09-15T22:02:27.699Z,11.32
2022-09-15T22:07:30.929Z,11.23
2022-09-15T22:12:33.963Z,11.16
2022-09-15T22:17:37.037Z,11.14
2022-09-15T22:22:40.770Z,11.16
2022-09-15T22:27:43.969Z,11.21
2022-09-15T22:32:47.184Z,11.23
2022-09-15T22:37:50.235Z,11.21
2022-09-15T22:42:53.282Z,11.17
2022-09-15T22:47:56.934Z,11.18
2022-09-15T22:53:00.006Z,11.25
2022-09-15T22:58:03.131Z,11.35
2022-09-15T23:03:07.653Z,11.45
2022-09-15T23:08:10.976Z,11.50
2022-09-15T23:13:14.992Z,11.49
2022-09-15T23:18:18.102Z,11.44
2022-09-15T23:23:21.152Z,11.40
2022-09-15T23:28:24.841Z,11.31
2022-09-15T23:33:34.136Z,11.20
2022-09-15T23:38:40.512Z,11.10
2022-09-15T23:43:43.902Z,10.98
2022-09-15T23:48:46.962Z,10.93
2022-09-15T23:53:50.018Z,10.94
2022-09-15T23:58:53.004Z,11.00
